Novo Imperador — CULB-7 — position and weather

sailwx.info

Track history (hours):
 
Tides and Currents Weather Stations Pressure Air Temp Water Temp Dewpoint Dewpoint Depression Visibility Wind Speed Wind Dir Waves Ship Positions

Novo Imperador

Last reported at 2018-Feb-19 04:19 UTC. Time now 2018-Feb-19 12:17 UTC.
Position N 38°45' W 009°58'.

Length 18 m.

MMSI: 204267000.

Date/timePositionNaut miles runAvg speedWind from/ knotsBaromVisibWave heightAir tempDewpointWater temp
2018-Feb-19 04:19N 38°45' W 009°58'3 8.7
2018-Feb-19 04:00N 38°43' W 009°56'4 8.8
2018-Feb-19 03:30N 38°41' W 009°51'4 8.6
2018-Feb-19 03:00N 38°40' W 009°45'4 8.6
2018-Feb-19 02:31N 38°37' W 009°41'4 9.0
2018-Feb-19 02:01N 38°35' W 009°36'5 9.0
2018-Feb-19 01:30N 38°33' W 009°31'4 8.8
2018-Feb-19 01:00N 38°30' W 009°26'4 8.9
2018-Feb-19 00:30N 38°28' W 009°21'4 8.8
2018-Feb-19 00:00N 38°26' W 009°16'4 8.4
2018-Feb-18 23:30N 38°24' W 009°11'4 8.3
2018-Feb-18 23:01N 38°26' W 009°07'0 0.0
2018-Feb-17 11:14N 38°26' W 009°07'0 0.0
2018-Feb-17 05:38N 38°26' W 009°07'0 0.6
2018-Feb-17 05:30N 38°26' W 009°07'1 2.3
2018-Feb-17 05:00N 38°26' W 009°08'4 8.4
2018-Feb-17 04:30N 38°24' W 009°13'4 8.2
2018-Feb-17 04:00N 38°25' W 009°18'5 8.3
2018-Feb-17 03:26N 38°27' W 009°23'3 8.2
2018-Feb-17 03:00N 38°29' W 009°28'4 8.3
2018-Feb-17 02:30N 38°30' W 009°32'4 8.5
2018-Feb-17 01:59N 38°32' W 009°38'4 8.4
2018-Feb-17 01:27N 38°33' W 009°43'4 8.5
2018-Feb-17 01:00N 38°35' W 009°48'4 7.9
2018-Feb-17 00:30N 38°37' W 009°52'4 1.3
2018-Feb-16 21:01N 38°41' W 009°55'0 0.4
2018-Feb-16 20:37N 38°40' W 009°55'0 0.9
2018-Feb-16 20:30N 38°40' W 009°55'1 0.1
2018-Feb-16 04:12N 38°41' W 009°54'2 8.5
2018-Feb-16 04:00N 38°39' W 009°52'3 6.7
2018-Feb-16 03:31N 38°40' W 009°48'4 8.0
2018-Feb-16 03:00N 38°38' W 009°43'4 8.1
2018-Feb-16 02:30N 38°36' W 009°39'4 8.4
2018-Feb-16 02:00N 38°33' W 009°34'4 8.4
2018-Feb-16 01:30N 38°31' W 009°30'4 8.4
2018-Feb-16 01:00N 38°29' W 009°25'4 8.3
2018-Feb-16 00:30N 38°27' W 009°21'4 8.3
2018-Feb-16 00:00N 38°25' W 009°16'4 7.7
2018-Feb-15 23:30N 38°24' W 009°11'4 7.6
2018-Feb-15 23:00N 38°26' W 009°07'0 0.8
2018-Feb-15 22:30N 38°26' W 009°07'0 0.0
2018-Feb-15 17:27N 38°26' W 009°07'0 0.0
2018-Feb-15 08:06N 38°26' W 009°07'0 0.0
2018-Feb-15 07:57N 38°26' W 009°07'0 0.0
2018-Feb-15 07:22N 38°26' W 009°07'0 0.1
2018-Feb-15 06:46N 38°26' W 009°07'4 7.0
2018-Feb-15 06:08N 38°24' W 009°12'1 8.4
2018-Feb-15 06:00N 38°24' W 009°13'4 8.0
2018-Feb-15 05:30N 38°26' W 009°18'4 8.4
2018-Feb-15 04:58N 38°29' W 009°22'4 8.3
2018-Feb-15 04:30N 38°31' W 009°26'4 8.2
2018-Feb-15 04:00N 38°33' W 009°31'4 8.1
2018-Feb-15 03:30N 38°35' W 009°35'4 8.2
2018-Feb-15 03:00N 38°37' W 009°40'4 8.4
2018-Feb-15 02:30N 38°39' W 009°44'4 8.5
2018-Feb-15 02:00N 38°40' W 009°49'3 5.9
2018-Feb-15 01:26N 38°40' W 009°54'1 3.4
2018-Feb-15 01:00N 38°40' W 009°56'2 3.6
2018-Feb-15 00:23N 38°41' W 009°58'4 0.6
2018-Feb-14 17:51N 38°41' W 009°53'4 0.3
2018-Feb-14 03:57N 38°41' W 009°49'3 7.6
2018-Feb-14 03:30N 38°39' W 009°45'4 7.9
2018-Feb-14 03:00N 38°37' W 009°41'4 8.3
2018-Feb-14 02:30N 38°35' W 009°36'4 8.3
2018-Feb-14 02:00N 38°33' W 009°32'4 8.5
2018-Feb-14 01:30N 38°31' W 009°27'4 8.5
2018-Feb-14 01:00N 38°28' W 009°22'4 7.8
2018-Feb-14 00:30N 38°26' W 009°18'4 7.8
2018-Feb-14 00:01N 38°25' W 009°14'5 7.3
2018-Feb-13 23:18N 38°26' W 009°07'1 3.1
2018-Feb-13 23:00N 38°26' W 009°07'0 0.0
2018-Feb-13 07:58N 38°26' W 009°07'0 0.1
2018-Feb-13 07:29N 38°26' W 009°07'5 6.0
2018-Feb-13 06:42N 38°24' W 009°12'2 8.6
2018-Feb-13 06:28N 38°25' W 009°15'5 8.6
2018-Feb-13 05:54N 38°27' W 009°20'4 8.8
2018-Feb-13 05:30N 38°29' W 009°24'4 8.6
2018-Feb-13 04:58N 38°31' W 009°29'4 8.7
2018-Feb-13 04:30N 38°33' W 009°34'4 8.9
2018-Feb-13 04:00N 38°35' W 009°39'4 8.6
2018-Feb-13 03:30N 38°37' W 009°43'4 8.2
2018-Feb-13 03:00N 38°39' W 009°48'4 8.2
2018-Feb-13 02:30N 38°42' W 009°52'3 0.5
2018-Feb-12 20:38N 38°40' W 009°55'2 0.8
2018-Feb-12 18:32N 38°41' W 009°53'0 0.4
2018-Feb-12 18:13N 38°41' W 009°53'0 0.4
2018-Feb-12 17:51N 38°41' W 009°53'1 0.1
2018-Feb-12 04:16N 38°41' W 009°54'2 8.1
2018-Feb-12 04:00N 38°41' W 009°51'4 8.0
2018-Feb-12 03:30N 38°39' W 009°46'4 8.4
2018-Feb-12 03:00N 38°37' W 009°42'4 8.3
2018-Feb-12 02:30N 38°35' W 009°37'4 8.1
2018-Feb-12 02:00N 38°33' W 009°33'4 8.3
2018-Feb-12 01:30N 38°31' W 009°28'4 8.4
2018-Feb-12 01:00N 38°29' W 009°24'4 8.3
2018-Feb-12 00:30N 38°27' W 009°19'4 8.4
2018-Feb-12 00:01N 38°25' W 009°14'5 7.6
2018-Feb-11 23:23N 38°25' W 009°08'2 4.3
2018-Feb-11 23:00N 38°26' W 009°07'0 0.0
2018-Feb-10 09:45N 38°26' W 009°07'26 1.1
2018-Feb-09 10:30N 38°33' W 009°39'10 9.5
2018-Feb-09 09:31N 38°39' W 009°49'  
Track history (hours):
 
Tides and Currents Weather Stations Pressure Air Temp Water Temp Dewpoint Dewpoint Depression Visibility Wind Speed Wind Dir Waves Ship Positions

Novo Imperador

Last reported at 2018-Feb-19 04:19 UTC. Time now 2018-Feb-19 12:17 UTC.
Position N 38°45' W 009°58'.

Length 18 m.

MMSI: 204267000.

Date/timePositionNaut miles runAvg speedWind from/ knotsBaromVisibWave heightAir tempDewpointWater temp
2018-Feb-19 04:19N 38°45' W 009°58'3 8.7
2018-Feb-19 04:00N 38°43' W 009°56'4 8.8
2018-Feb-19 03:30N 38°41' W 009°51'4 8.6
2018-Feb-19 03:00N 38°40' W 009°45'4 8.6
2018-Feb-19 02:31N 38°37' W 009°41'4 9.0
2018-Feb-19 02:01N 38°35' W 009°36'5 9.0
2018-Feb-19 01:30N 38°33' W 009°31'4 8.8
2018-Feb-19 01:00N 38°30' W 009°26'4 8.9
2018-Feb-19 00:30N 38°28' W 009°21'4 8.8
2018-Feb-19 00:00N 38°26' W 009°16'4 8.4
2018-Feb-18 23:30N 38°24' W 009°11'4 8.3
2018-Feb-18 23:01N 38°26' W 009°07'0 0.0
2018-Feb-17 11:14N 38°26' W 009°07'0 0.0
2018-Feb-17 05:38N 38°26' W 009°07'0 0.6
2018-Feb-17 05:30N 38°26' W 009°07'1 2.3
2018-Feb-17 05:00N 38°26' W 009°08'4 8.4
2018-Feb-17 04:30N 38°24' W 009°13'4 8.2
2018-Feb-17 04:00N 38°25' W 009°18'5 8.3
2018-Feb-17 03:26N 38°27' W 009°23'3 8.2
2018-Feb-17 03:00N 38°29' W 009°28'4 8.3
2018-Feb-17 02:30N 38°30' W 009°32'4 8.5
2018-Feb-17 01:59N 38°32' W 009°38'4 8.4
2018-Feb-17 01:27N 38°33' W 009°43'4 8.5
2018-Feb-17 01:00N 38°35' W 009°48'4 7.9
2018-Feb-17 00:30N 38°37' W 009°52'4 1.3
2018-Feb-16 21:01N 38°41' W 009°55'0 0.4
2018-Feb-16 20:37N 38°40' W 009°55'0 0.9
2018-Feb-16 20:30N 38°40' W 009°55'1 0.1
2018-Feb-16 04:12N 38°41' W 009°54'2 8.5
2018-Feb-16 04:00N 38°39' W 009°52'3 6.7
2018-Feb-16 03:31N 38°40' W 009°48'4 8.0
2018-Feb-16 03:00N 38°38' W 009°43'4 8.1
2018-Feb-16 02:30N 38°36' W 009°39'4 8.4
2018-Feb-16 02:00N 38°33' W 009°34'4 8.4
2018-Feb-16 01:30N 38°31' W 009°30'4 8.4
2018-Feb-16 01:00N 38°29' W 009°25'4 8.3
2018-Feb-16 00:30N 38°27' W 009°21'4 8.3
2018-Feb-16 00:00N 38°25' W 009°16'4 7.7
2018-Feb-15 23:30N 38°24' W 009°11'4 7.6
2018-Feb-15 23:00N 38°26' W 009°07'0 0.8
2018-Feb-15 22:30N 38°26' W 009°07'0 0.0
2018-Feb-15 17:27N 38°26' W 009°07'0 0.0
2018-Feb-15 08:06N 38°26' W 009°07'0 0.0
2018-Feb-15 07:57N 38°26' W 009°07'0 0.0
2018-Feb-15 07:22N 38°26' W 009°07'0 0.1
2018-Feb-15 06:46N 38°26' W 009°07'4 7.0
2018-Feb-15 06:08N 38°24' W 009°12'1 8.4
2018-Feb-15 06:00N 38°24' W 009°13'4 8.0
2018-Feb-15 05:30N 38°26' W 009°18'4 8.4
2018-Feb-15 04:58N 38°29' W 009°22'4 8.3
2018-Feb-15 04:30N 38°31' W 009°26'4 8.2
2018-Feb-15 04:00N 38°33' W 009°31'4 8.1
2018-Feb-15 03:30N 38°35' W 009°35'4 8.2
2018-Feb-15 03:00N 38°37' W 009°40'4 8.4
2018-Feb-15 02:30N 38°39' W 009°44'4 8.5
2018-Feb-15 02:00N 38°40' W 009°49'3 5.9
2018-Feb-15 01:26N 38°40' W 009°54'1 3.4
2018-Feb-15 01:00N 38°40' W 009°56'2 3.6
2018-Feb-15 00:23N 38°41' W 009°58'4 0.6
2018-Feb-14 17:51N 38°41' W 009°53'4 0.3
2018-Feb-14 03:57N 38°41' W 009°49'3 7.6
2018-Feb-14 03:30N 38°39' W 009°45'4 7.9
2018-Feb-14 03:00N 38°37' W 009°41'4 8.3
2018-Feb-14 02:30N 38°35' W 009°36'4 8.3
2018-Feb-14 02:00N 38°33' W 009°32'4 8.5
2018-Feb-14 01:30N 38°31' W 009°27'4 8.5
2018-Feb-14 01:00N 38°28' W 009°22'4 7.8
2018-Feb-14 00:30N 38°26' W 009°18'4 7.8
2018-Feb-14 00:01N 38°25' W 009°14'5 7.3
2018-Feb-13 23:18N 38°26' W 009°07'1 3.1
2018-Feb-13 23:00N 38°26' W 009°07'0 0.0
2018-Feb-13 07:58N 38°26' W 009°07'0 0.1
2018-Feb-13 07:29N 38°26' W 009°07'5 6.0
2018-Feb-13 06:42N 38°24' W 009°12'2 8.6
2018-Feb-13 06:28N 38°25' W 009°15'5 8.6
2018-Feb-13 05:54N 38°27' W 009°20'4 8.8
2018-Feb-13 05:30N 38°29' W 009°24'4 8.6
2018-Feb-13 04:58N 38°31' W 009°29'4 8.7
2018-Feb-13 04:30N 38°33' W 009°34'4 8.9
2018-Feb-13 04:00N 38°35' W 009°39'4 8.6
2018-Feb-13 03:30N 38°37' W 009°43'4 8.2
2018-Feb-13 03:00N 38°39' W 009°48'4 8.2
2018-Feb-13 02:30N 38°42' W 009°52'3 0.5
2018-Feb-12 20:38N 38°40' W 009°55'2 0.8
2018-Feb-12 18:32N 38°41' W 009°53'0 0.4
2018-Feb-12 18:13N 38°41' W 009°53'0 0.4
2018-Feb-12 17:51N 38°41' W 009°53'1 0.1
2018-Feb-12 04:16N 38°41' W 009°54'2 8.1
2018-Feb-12 04:00N 38°41' W 009°51'4 8.0
2018-Feb-12 03:30N 38°39' W 009°46'4 8.4
2018-Feb-12 03:00N 38°37' W 009°42'4 8.3
2018-Feb-12 02:30N 38°35' W 009°37'4 8.1
2018-Feb-12 02:00N 38°33' W 009°33'4 8.3
2018-Feb-12 01:30N 38°31' W 009°28'4 8.4
2018-Feb-12 01:00N 38°29' W 009°24'4 8.3
2018-Feb-12 00:30N 38°27' W 009°19'4 8.4
2018-Feb-12 00:01N 38°25' W 009°14'5 7.6
2018-Feb-11 23:23N 38°25' W 009°08'2 4.3
2018-Feb-11 23:00N 38°26' W 009°07'0 0.0
2018-Feb-10 09:45N 38°26' W 009°07'26 1.1
2018-Feb-09 10:30N 38°33' W 009°39'10 9.5
2018-Feb-09 09:31N 38°39' W 009°49'  

Dump ship's entire track history